Time;durP1;ratioP1;P1;durP2;ratioP2;P2;SDS_P1;SDS_P2;PMS_P1;PMS_P2;Temp;Humidity;BMP_temperature;BMP_pressure;BME280_temperature;BME280_humidity;BME280_pressure;Samples;Min_cycle;Max_cycle;Signal;HPM_P1;HPM_P2
2022/10/24 00:00:27;;;;;;;25.02;7.88;;;17.40;99.90;;;;;;4898823;29;20025;-75
2022/10/24 00:02:53;;;;;;;17.98;8.13;;;17.40;99.90;;;;;;4899088;29;20119;-74
2022/10/24 00:05:19;;;;;;;16.80;7.63;;;17.40;99.90;;;;;;4906600;29;20044;-75
2022/10/24 00:07:45;;;;;;;17.67;8.02;;;17.40;99.90;;;;;;4917669;29;20029;-75
2022/10/24 00:10:12;;;;;;;15.00;7.95;;;17.40;99.90;;;;;;4900829;29;20077;-75
2022/10/24 00:12:38;;;;;;;19.23;7.63;;;17.40;99.90;;;;;;4917610;29;20035;-75
2022/10/24 00:15:05;;;;;;;19.05;7.90;;;17.40;99.90;;;;;;4917287;29;20032;-75
2022/10/24 00:17:31;;;;;;;23.85;7.72;;;17.30;99.90;;;;;;4917218;29;20028;-75
2022/10/24 00:19:58;;;;;;;16.95;8.00;;;17.40;99.90;;;;;;4917425;29;20028;-74
2022/10/24 00:22:24;;;;;;;17.35;7.63;;;17.30;99.90;;;;;;4917240;29;20031;-74
2022/10/24 00:24:50;;;;;;;19.27;7.65;;;17.40;99.90;;;;;;4917013;29;20028;-74
2022/10/24 00:27:15;;;;;;;21.42;7.78;;;17.30;99.90;;;;;;4917169;29;20039;-74
2022/10/24 00:29:41;;;;;;;15.88;7.70;;;17.40;99.90;;;;;;4917120;29;20051;-75
2022/10/24 00:32:07;;;;;;;18.35;7.85;;;17.30;99.90;;;;;;4900154;29;20025;-75
2022/10/24 00:34:33;;;;;;;19.60;7.35;;;17.30;99.90;;;;;;4900290;29;20030;-75
2022/10/24 00:36:58;;;;;;;22.55;8.82;;;17.30;99.90;;;;;;4899993;29;20059;-75
2022/10/24 00:39:24;;;;;;;22.13;8.05;;;17.30;99.90;;;;;;4917272;29;20434;-75
2022/10/24 00:41:53;;;;;;;23.88;7.72;;;17.30;99.90;;;;;;4917184;29;20070;-75
2022/10/24 00:44:52;;;;;;;21.98;8.10;;;17.20;99.90;;;;;;4917156;29;20024;-75
2022/10/24 00:47:20;;;;;;;16.48;7.18;;;17.20;99.90;;;;;;4895324;29;20622;-75
2022/10/24 00:49:59;;;;;;;11.27;7.70;;;17.20;99.90;;;;;;4916958;29;20020;-75
2022/10/24 00:52:29;;;;;;;18.30;8.15;;;17.20;99.90;;;;;;4900027;29;20027;-75
2022/10/24 00:54:57;;;;;;;24.23;7.55;;;17.20;99.90;;;;;;4917193;29;20083;-74
2022/10/24 00:58:00;;;;;;;16.25;8.00;;;17.20;99.90;;;;;;4916934;29;20032;-75
2022/10/24 01:00:30;;;;;;;11.25;6.78;;;17.30;99.90;;;;;;4899868;29;20066;-75
2022/10/24 01:02:56;;;;;;;18.98;7.80;;;17.30;99.90;;;;;;4916959;29;20059;-75
2022/10/24 01:05:26;;;;;;;22.52;7.90;;;17.30;99.90;;;;;;4916677;29;20048;-75
2022/10/24 01:07:51;;;;;;;15.35;7.65;;;17.30;99.90;;;;;;4916975;29;20035;-75
2022/10/24 01:10:40;;;;;;;14.48;7.40;;;17.30;99.90;;;;;;4899721;29;20028;-75
2022/10/24 01:13:50;;;;;;;20.17;8.85;;;17.30;99.90;;;;;;4916675;29;20037;-75
2022/10/24 01:16:28;;;;;;;17.05;8.05;;;17.30;99.90;;;;;;4876236;29;20422;-75
2022/10/24 01:19:14;;;;;;;18.02;8.48;;;17.20;99.90;;;;;;4899828;29;20385;-75
2022/10/24 01:21:45;;;;;;;18.92;7.93;;;17.20;99.90;;;;;;4916769;29;20039;-75
2022/10/24 01:24:29;;;;;;;18.35;7.95;;;17.20;99.90;;;;;;4916725;29;20048;-75
2022/10/24 01:26:58;;;;;;;22.92;8.52;;;17.20;99.90;;;;;;4916438;29;20024;-75
2022/10/24 01:29:54;;;;;;;22.67;8.05;;;17.20;99.90;;;;;;4920461;29;20040;-75
2022/10/24 01:32:42;;;;;;;21.30;7.88;;;17.20;99.90;;;;;;4920545;29;20099;-75
2022/10/24 01:35:34;;;;;;;12.65;7.35;;;17.10;99.90;;;;;;4899966;29;20484;-75
2022/10/24 01:38:08;;;;;;;15.02;7.78;;;17.10;99.90;;;;;;4901649;29;20035;-75
2022/10/24 01:40:45;;;;;;;19.27;8.23;;;17.10;99.90;;;;;;4901527;29;20035;-75
2022/10/24 01:43:13;;;;;;;15.13;8.40;;;17.00;99.90;;;;;;4901366;29;20088;-75
2022/10/24 01:45:42;;;;;;;18.58;8.10;;;17.00;99.90;;;;;;4901027;29;20021;-75
2022/10/24 01:48:12;;;;;;;15.35;7.93;;;17.00;99.90;;;;;;4901350;29;20020;-75
2022/10/24 01:50:39;;;;;;;15.15;8.65;;;17.00;99.90;;;;;;4902895;29;20070;-75
2022/10/24 01:53:08;;;;;;;9.95;7.22;;;16.90;99.90;;;;;;4903024;29;20041;-75
2022/10/24 01:55:34;;;;;;;13.30;8.32;;;16.90;99.90;;;;;;4918646;29;20028;-74
2022/10/24 01:57:59;;;;;;;17.45;7.70;;;16.90;99.90;;;;;;4918792;29;20024;-75
2022/10/24 02:00:25;;;;;;;17.13;8.27;;;16.80;99.90;;;;;;4901858;29;20151;-75
2022/10/24 02:02:59;;;;;;;18.30;7.80;;;16.80;99.90;;;;;;4919662;29;20542;-75
2022/10/24 02:05:30;;;;;;;12.60;7.25;;;16.80;99.90;;;;;;4902591;29;20059;-75
2022/10/24 02:08:02;;;;;;;17.00;8.07;;;16.70;99.90;;;;;;4919932;29;20129;-75
2022/10/24 02:10:34;;;;;;;20.38;8.95;;;16.70;99.90;;;;;;4920019;29;20117;-74
2022/10/24 02:13:05;;;;;;;16.80;7.90;;;16.70;99.90;;;;;;4919756;29;20020;-75
2022/10/24 02:15:39;;;;;;;19.67;8.63;;;16.70;99.90;;;;;;4919735;29;20079;-75
2022/10/24 02:18:06;;;;;;;13.00;7.05;;;16.70;99.90;;;;;;4902577;29;20039;-74
2022/10/24 02:20:36;;;;;;;12.73;7.65;;;16.70;99.90;;;;;;4919662;29;20055;-75
2022/10/24 02:23:13;;;;;;;19.40;8.88;;;16.70;99.90;;;;;;4919626;29;20028;-75
2022/10/24 02:25:43;;;;;;;15.43;8.73;;;16.70;99.90;;;;;;4919638;29;20032;-75
2022/10/24 02:28:19;;;;;;;14.45;8.00;;;16.70;99.90;;;;;;4919626;29;20020;-74
2022/10/24 02:31:20;;;;;;;23.85;8.10;;;16.70;99.90;;;;;;4919599;29;20016;-74
2022/10/24 02:33:50;;;;;;;20.20;7.78;;;16.60;99.90;;;;;;4879454;29;20088;-75
2022/10/24 02:36:20;;;;;;;18.15;9.18;;;16.60;99.90;;;;;;4919207;29;20028;-75
2022/10/24 02:38:49;;;;;;;19.95;8.23;;;16.60;99.90;;;;;;4901564;29;20032;-75
2022/10/24 02:41:21;;;;;;;18.35;8.75;;;16.60;99.90;;;;;;4919054;29;20101;-75
2022/10/24 02:43:49;;;;;;;15.32;8.07;;;16.60;99.90;;;;;;4919254;29;20032;-74
2022/10/24 02:46:17;;;;;;;14.20;7.75;;;16.70;99.90;;;;;;4919249;29;20121;-75
2022/10/24 02:48:48;;;;;;;17.13;8.27;;;16.70;99.90;;;;;;4902256;29;20047;-75
2022/10/24 02:51:15;;;;;;;20.73;8.90;;;16.70;99.90;;;;;;4902361;29;20028;-75
2022/10/24 02:53:41;;;;;;;16.30;8.30;;;16.60;99.90;;;;;;4918902;29;20256;-75
2022/10/24 02:56:07;;;;;;;14.07;7.82;;;16.60;99.90;;;;;;4918971;29;20036;-75
2022/10/24 02:58:32;;;;;;;19.55;8.25;;;16.60;99.90;;;;;;4902204;29;20031;-75
2022/10/24 03:00:58;;;;;;;16.63;9.38;;;16.60;99.90;;;;;;4919011;29;20615;-75
2022/10/24 03:03:24;;;;;;;19.52;8.68;;;16.60;99.90;;;;;;4919083;29;20092;-75
2022/10/24 03:05:49;;;;;;;13.43;7.43;;;16.60;99.90;;;;;;4918827;29;20402;-74
2022/10/24 03:08:15;;;;;;;18.45;8.07;;;16.60;99.90;;;;;;4918821;29;20027;-74
2022/10/24 03:10:41;;;;;;;18.77;8.40;;;16.60;99.90;;;;;;4901903;29;20028;-74
2022/10/24 03:13:06;;;;;;;19.70;9.15;;;16.60;99.90;;;;;;4918748;29;20025;-75
2022/10/24 03:15:32;;;;;;;20.42;9.77;;;16.60;99.90;;;;;;4901663;29;20032;-75
2022/10/24 03:17:58;;;;;;;18.83;8.40;;;16.60;99.90;;;;;;4918894;29;20063;-75
2022/10/24 03:20:24;;;;;;;13.65;8.23;;;16.60;99.90;;;;;;4901679;29;20566;-75
2022/10/24 03:22:50;;;;;;;16.02;8.23;;;16.60;99.90;;;;;;4918656;29;20099;-75
2022/10/24 03:25:16;;;;;;;17.15;8.35;;;16.60;99.90;;;;;;4918557;29;20070;-75
2022/10/24 03:27:42;;;;;;;17.27;8.65;;;16.70;99.90;;;;;;4918419;29;20052;-75
2022/10/24 03:30:09;;;;;;;22.55;9.43;;;16.60;99.90;;;;;;4918466;29;20052;-75
2022/10/24 03:32:34;;;;;;;14.30;8.05;;;16.60;99.90;;;;;;4918374;29;20039;-75
2022/10/24 03:35:01;;;;;;;18.08;8.85;;;16.70;99.90;;;;;;4918286;29;20107;-75
2022/10/24 03:37:27;;;;;;;17.75;8.60;;;16.70;99.90;;;;;;4918199;29;20024;-75
2022/10/24 03:39:53;;;;;;;15.55;8.35;;;16.70;99.90;;;;;;4918520;29;20056;-75
2022/10/24 03:42:19;;;;;;;14.57;8.35;;;16.70;99.90;;;;;;4918171;29;20032;-75
2022/10/24 03:44:45;;;;;;;19.42;8.07;;;16.70;99.90;;;;;;4918237;29;20047;-75
2022/10/24 03:47:11;;;;;;;16.25;8.40;;;16.70;99.90;;;;;;4918334;29;20028;-75
2022/10/24 03:49:37;;;;;;;18.63;8.68;;;16.70;99.90;;;;;;4918127;29;20032;-75
2022/10/24 03:52:02;;;;;;;29.23;9.45;;;16.80;99.90;;;;;;4917490;29;20032;-75
2022/10/24 03:54:28;;;;;;;21.83;8.82;;;16.80;99.90;;;;;;4910408;29;20486;-75
2022/10/24 03:56:54;;;;;;;19.38;8.38;;;16.80;99.90;;;;;;4917884;29;20028;-75
2022/10/24 03:59:20;;;;;;;16.15;8.32;;;16.80;99.90;;;;;;4917793;29;20056;-75
2022/10/24 04:01:46;;;;;;;20.23;10.00;;;16.80;99.90;;;;;;4918043;29;20153;-75
2022/10/24 04:04:11;;;;;;;28.60;9.85;;;16.80;99.90;;;;;;4918088;29;20083;-75
2022/10/24 04:06:38;;;;;;;18.45;9.10;;;16.80;99.90;;;;;;4917627;29;20048;-75
2022/10/24 04:09:04;;;;;;;11.63;7.85;;;16.80;99.90;;;;;;4917721;29;20111;-75
2022/10/24 04:11:30;;;;;;;18.88;8.65;;;16.80;99.90;;;;;;4917775;29;20103;-75
2022/10/24 04:13:56;;;;;;;17.40;8.63;;;16.90;99.90;;;;;;4917858;29;21134;-75
2022/10/24 04:16:22;;;;;;;23.65;8.48;;;16.90;99.90;;;;;;4917682;29;20036;-75
2022/10/24 04:18:49;;;;;;;21.35;8.73;;;16.90;99.90;;;;;;4917737;29;20028;-74
2022/10/24 04:21:14;;;;;;;16.27;8.32;;;16.90;99.90;;;;;;4917619;29;20030;-75
2022/10/24 04:23:41;;;;;;;21.27;9.00;;;16.90;99.90;;;;;;4908662;29;20375;-75
2022/10/24 04:26:07;;;;;;;24.90;9.63;;;16.90;99.90;;;;;;4881476;29;20123;-75
2022/10/24 04:28:33;;;;;;;26.80;9.15;;;17.00;99.90;;;;;;4881320;29;20396;-75
2022/10/24 04:30:59;;;;;;;13.02;8.07;;;16.90;99.90;;;;;;4882080;29;20021;-75
2022/10/24 04:33:25;;;;;;;22.50;8.73;;;17.00;99.90;;;;;;4889153;29;20024;-75
2022/10/24 04:35:51;;;;;;;19.50;9.35;;;17.00;99.90;;;;;;4898113;29;20028;-75
2022/10/24 04:38:18;;;;;;;19.02;8.80;;;17.00;99.90;;;;;;4882032;29;20056;-75
2022/10/24 04:40:54;;;;;;;19.35;9.23;;;17.00;99.90;;;;;;4879465;29;20037;-74
2022/10/24 04:43:21;;;;;;;25.45;9.25;;;17.00;99.90;;;;;;4879508;29;20112;-75
2022/10/24 04:45:46;;;;;;;17.20;9.07;;;16.90;99.90;;;;;;4877411;29;20033;-74
2022/10/24 04:48:13;;;;;;;20.08;8.43;;;16.90;99.90;;;;;;4897982;29;20089;-75
2022/10/24 04:50:40;;;;;;;22.10;9.38;;;16.90;99.90;;;;;;4897957;29;20789;-75
2022/10/24 04:53:06;;;;;;;20.65;9.23;;;17.00;99.90;;;;;;4880572;29;20029;-75
2022/10/24 04:55:33;;;;;;;20.25;9.07;;;17.00;99.90;;;;;;4879392;29;20028;-75
2022/10/24 04:57:58;;;;;;;20.80;8.98;;;17.00;99.90;;;;;;4879426;29;20120;-75
2022/10/24 05:00:24;;;;;;;17.95;8.45;;;16.90;99.90;;;;;;4879353;29;20112;-75
2022/10/24 05:02:50;;;;;;;14.40;8.68;;;17.00;99.90;;;;;;4878785;29;20044;-74
2022/10/24 05:05:16;;;;;;;19.02;8.65;;;17.00;99.90;;;;;;4868067;29;20053;-75
2022/10/24 05:07:42;;;;;;;18.33;9.27;;;17.00;99.90;;;;;;4897845;29;20025;-75
2022/10/24 05:10:09;;;;;;;13.25;8.73;;;16.90;99.90;;;;;;4881187;29;20024;-75
2022/10/24 05:12:35;;;;;;;13.38;9.05;;;16.90;99.90;;;;;;4881193;29;20076;-75
2022/10/24 05:15:00;;;;;;;19.38;8.98;;;17.00;99.90;;;;;;4897796;29;20020;-75
2022/10/24 05:17:26;;;;;;;19.38;9.35;;;16.90;99.90;;;;;;4897506;29;20120;-75
2022/10/24 05:19:53;;;;;;;21.40;9.35;;;16.80;99.90;;;;;;4880996;29;20089;-75
2022/10/24 05:22:18;;;;;;;20.25;9.10;;;16.80;99.90;;;;;;4880927;29;20028;-75
2022/10/24 05:24:44;;;;;;;21.35;8.85;;;16.90;99.90;;;;;;4897942;29;20455;-75
2022/10/24 05:27:10;;;;;;;16.60;8.90;;;16.90;99.90;;;;;;4880621;29;20040;-75
2022/10/24 05:29:35;;;;;;;20.85;10.15;;;16.90;99.90;;;;;;4897735;29;20024;-75
2022/10/24 05:32:01;;;;;;;23.75;9.73;;;16.90;99.90;;;;;;4897731;29;20577;-75
2022/10/24 05:34:27;;;;;;;20.20;9.48;;;16.90;99.90;;;;;;4897877;29;20029;-75
2022/10/24 05:36:52;;;;;;;17.67;9.27;;;16.90;99.90;;;;;;4880776;29;20024;-75
2022/10/24 05:39:18;;;;;;;16.00;9.30;;;16.90;99.90;;;;;;4897948;29;20029;-75
2022/10/24 05:41:44;;;;;;;15.30;9.35;;;16.90;99.90;;;;;;4897435;29;20044;-75
2022/10/24 05:44:11;;;;;;;17.70;9.18;;;16.90;99.90;;;;;;4915150;29;20435;-75
2022/10/24 05:46:37;;;;;;;17.85;8.68;;;16.90;99.90;;;;;;4916403;29;20123;-75
2022/10/24 05:49:03;;;;;;;16.52;8.93;;;16.90;99.90;;;;;;4899497;29;20379;-75
2022/10/24 05:51:29;;;;;;;17.77;9.10;;;16.90;99.90;;;;;;4899481;29;20039;-75
2022/10/24 05:53:55;;;;;;;20.73;10.15;;;16.90;99.90;;;;;;4916404;29;20016;-75
2022/10/24 05:56:20;;;;;;;19.30;9.30;;;17.00;99.90;;;;;;4916356;29;20067;-75
2022/10/24 05:58:46;;;;;;;17.20;9.65;;;17.00;99.90;;;;;;4899512;29;20039;-75
2022/10/24 06:01:12;;;;;;;18.85;9.23;;;17.00;99.90;;;;;;4899590;29;20475;-75
2022/10/24 06:03:38;;;;;;;22.05;10.27;;;17.00;99.90;;;;;;4916514;29;20051;-75
2022/10/24 06:06:09;;;;;;;20.20;9.75;;;17.00;99.90;;;;;;4899004;29;20048;-75
2022/10/24 06:08:38;;;;;;;19.02;9.20;;;17.00;99.90;;;;;;4916294;29;20028;-75
2022/10/24 06:11:07;;;;;;;17.70;9.57;;;17.00;99.90;;;;;;4899200;29;20080;-75
2022/10/24 06:13:32;;;;;;;23.10;10.32;;;17.00;99.90;;;;;;4899963;29;20115;-74
2022/10/24 06:15:58;;;;;;;13.95;9.23;;;17.00;99.90;;;;;;4919762;29;20115;-76
2022/10/24 06:18:24;;;;;;;17.80;8.70;;;17.00;99.90;;;;;;4919590;29;20043;-75
2022/10/24 06:20:49;;;;;;;20.90;9.02;;;17.10;99.90;;;;;;4919615;29;20079;-75
2022/10/24 06:23:15;;;;;;;17.42;9.65;;;17.00;99.90;;;;;;4919506;29;20394;-76
2022/10/24 06:25:41;;;;;;;21.58;10.55;;;17.10;99.90;;;;;;4902416;29;20035;-75
2022/10/24 06:28:08;;;;;;;18.65;10.15;;;17.00;99.90;;;;;;4919178;29;20030;-76
2022/10/24 06:30:34;;;;;;;13.50;9.85;;;17.10;99.90;;;;;;4919199;29;20623;-76
2022/10/24 06:33:01;;;;;;;19.40;10.20;;;17.10;99.90;;;;;;4919343;29;20032;-75
2022/10/24 06:35:27;;;;;;;17.65;9.18;;;17.10;99.90;;;;;;4919394;29;20068;-75
2022/10/24 06:37:53;;;;;;;22.67;10.45;;;17.20;99.90;;;;;;4919498;29;20482;-75
2022/10/24 06:40:18;;;;;;;19.20;9.98;;;17.10;99.90;;;;;;4919427;29;20020;-75
2022/10/24 06:42:44;;;;;;;22.20;10.20;;;17.10;99.90;;;;;;4919500;29;20032;-75
2022/10/24 06:45:11;;;;;;;22.48;10.07;;;17.10;99.90;;;;;;4919171;29;20035;-75
2022/10/24 06:47:37;;;;;;;12.85;9.23;;;17.10;99.90;;;;;;4919435;29;20438;-75
2022/10/24 06:50:04;;;;;;;22.73;9.50;;;17.20;99.90;;;;;;4919322;29;20036;-76
2022/10/24 06:52:30;;;;;;;22.20;10.40;;;17.10;99.90;;;;;;4919366;29;20634;-76
2022/10/24 06:54:55;;;;;;;21.77;9.32;;;17.20;99.90;;;;;;4902093;29;20058;-76
2022/10/24 06:57:21;;;;;;;16.10;10.25;;;17.10;99.90;;;;;;4919213;29;20024;-75
2022/10/24 06:59:47;;;;;;;16.05;9.68;;;17.10;99.90;;;;;;4919064;29;20020;-76
2022/10/24 07:02:14;;;;;;;19.17;10.48;;;17.20;99.90;;;;;;4918827;29;20071;-76
2022/10/24 07:04:40;;;;;;;20.85;10.07;;;17.20;99.90;;;;;;4921716;29;20131;-75
2022/10/24 07:07:05;;;;;;;19.50;10.60;;;17.20;99.90;;;;;;4937584;29;20111;-75
2022/10/24 07:09:31;;;;;;;17.73;11.55;;;17.20;99.90;;;;;;4937954;29;20111;-75
2022/10/24 07:11:58;;;;;;;16.50;10.27;;;17.30;99.90;;;;;;4937877;29;20062;-75
2022/10/24 07:14:27;;;;;;;20.42;10.13;;;17.30;99.90;;;;;;4937936;29;20031;-75
2022/10/24 07:16:52;;;;;;;19.65;9.82;;;17.30;99.90;;;;;;4937562;29;20557;-76
2022/10/24 07:19:18;;;;;;;19.88;10.73;;;17.30;99.90;;;;;;4937725;29;20114;-75
2022/10/24 07:21:44;;;;;;;21.75;10.27;;;17.40;99.90;;;;;;4937850;29;20670;-75
2022/10/24 07:24:12;;;;;;;21.48;10.43;;;17.40;99.90;;;;;;4937672;29;20036;-75
2022/10/24 07:26:38;;;;;;;12.68;8.98;;;17.40;99.90;;;;;;4925351;29;20363;-76
2022/10/24 07:29:04;;;;;;;29.58;9.93;;;17.50;99.90;;;;;;4918598;29;20035;-75
2022/10/24 07:31:32;;;;;;;20.65;10.52;;;17.50;99.90;;;;;;4901423;29;20467;-75
2022/10/24 07:33:59;;;;;;;21.85;9.90;;;17.50;99.90;;;;;;4918343;29;20080;-75
2022/10/24 07:36:26;;;;;;;17.85;10.38;;;17.60;99.90;;;;;;4918080;29;20036;-75
2022/10/24 07:38:55;;;;;;;18.58;10.77;;;17.60;99.90;;;;;;4918377;29;20474;-76
2022/10/24 07:41:23;;;;;;;17.77;9.98;;;17.60;99.90;;;;;;4918241;29;20062;-75
2022/10/24 07:43:49;;;;;;;19.25;9.77;;;17.60;99.90;;;;;;4901150;29;20394;-76
2022/10/24 07:46:17;;;;;;;15.70;10.15;;;17.70;99.90;;;;;;4917768;29;20032;-75
2022/10/24 07:48:47;;;;;;;17.25;9.82;;;17.70;99.90;;;;;;4901152;29;20088;-75
2022/10/24 07:51:14;;;;;;;18.17;9.73;;;17.70;99.90;;;;;;4900993;29;20060;-76
2022/10/24 07:53:40;;;;;;;21.08;10.25;;;17.80;99.90;;;;;;4917990;29;20028;-75
2022/10/24 07:56:09;;;;;;;22.05;10.13;;;17.80;99.90;;;;;;4917776;29;20924;-75
2022/10/24 07:58:35;;;;;;;16.38;10.43;;;17.90;99.90;;;;;;4900906;29;20024;-75
2022/10/24 08:01:06;;;;;;;29.77;10.70;;;17.90;99.90;;;;;;4917673;29;20198;-75
2022/10/24 08:03:32;;;;;;;14.25;10.32;;;17.90;99.90;;;;;;4900866;29;20035;-76
2022/10/24 08:05:57;;;;;;;18.23;10.10;;;18.00;99.90;;;;;;4900425;29;20044;-75
2022/10/24 08:08:23;;;;;;;23.58;10.65;;;18.00;99.90;;;;;;4917548;29;20035;-75
2022/10/24 08:10:49;;;;;;;16.55;9.98;;;18.10;99.90;;;;;;4917879;29;20063;-75
2022/10/24 08:13:15;;;;;;;19.80;10.23;;;18.10;99.90;;;;;;4917550;29;20051;-76
2022/10/24 08:15:40;;;;;;;13.30;9.30;;;18.20;99.90;;;;;;4917437;29;20039;-76
2022/10/24 08:18:06;;;;;;;19.63;10.82;;;18.20;99.90;;;;;;4917488;29;20036;-75
2022/10/24 08:20:32;;;;;;;17.88;10.75;;;18.20;99.90;;;;;;4917411;29;20097;-75
2022/10/24 08:22:58;;;;;;;18.50;10.45;;;18.30;99.90;;;;;;4900608;29;20471;-75
2022/10/24 08:25:23;;;;;;;19.13;9.98;;;18.30;99.90;;;;;;4917201;29;20036;-75
2022/10/24 08:27:49;;;;;;;18.55;11.02;;;18.30;99.90;;;;;;4900312;29;20024;-76
2022/10/24 08:30:16;;;;;;;19.50;10.45;;;18.40;99.90;;;;;;4917455;29;20382;-76
2022/10/24 08:32:42;;;;;;;21.90;11.85;;;18.40;99.90;;;;;;4917581;29;20470;-75
2022/10/24 08:35:08;;;;;;;21.85;11.73;;;18.40;99.90;;;;;;4917191;29;20589;-75
2022/10/24 08:37:37;;;;;;;23.40;11.38;;;18.40;99.90;;;;;;4916927;29;20382;-76
2022/10/24 08:40:06;;;;;;;18.52;10.25;;;18.40;99.90;;;;;;4914084;29;20106;-77
2022/10/24 08:42:32;;;;;;;21.63;12.02;;;18.40;99.90;;;;;;4897538;29;20028;-77
2022/10/24 08:44:59;;;;;;;21.80;12.13;;;18.40;99.90;;;;;;4896818;29;20404;-76
2022/10/24 08:47:40;;;;;;;18.08;11.75;;;18.30;99.90;;;;;;4896127;29;20028;-76
2022/10/24 08:50:24;;;;;;;22.60;12.77;;;18.30;99.90;;;;;;4905291;29;20386;-77
2022/10/24 08:53:06;;;;;;;22.65;12.75;;;18.30;99.90;;;;;;4911542;29;20490;-76
2022/10/24 08:55:54;;;;;;;27.00;12.35;;;18.30;99.90;;;;;;4912936;29;20032;-75
2022/10/24 08:58:34;;;;;;;20.25;12.48;;;18.30;99.90;;;;;;4911988;29;20039;-76
2022/10/24 09:01:03;;;;;;;23.13;11.38;;;18.30;99.90;;;;;;4913221;29;20028;-76
2022/10/24 09:03:44;;;;;;;16.63;10.93;;;18.30;99.90;;;;;;4892995;29;20044;-75
2022/10/24 09:06:16;;;;;;;28.98;11.48;;;18.40;99.90;;;;;;4892963;29;20044;-75
2022/10/24 09:09:10;;;;;;;20.83;10.85;;;18.40;99.90;;;;;;4909923;29;20088;-75
2022/10/24 09:11:55;;;;;;;22.83;10.45;;;18.40;99.90;;;;;;4893182;29;20043;-75
2022/10/24 09:14:25;;;;;;;18.42;10.20;;;18.40;99.90;;;;;;4890449;29;20028;-76
2022/10/24 09:17:11;;;;;;;25.55;9.63;;;18.50;99.90;;;;;;4913383;29;20107;-76
2022/10/24 09:19:38;;;;;;;15.70;9.30;;;18.50;99.90;;;;;;4913982;29;20051;-76
2022/10/24 09:22:06;;;;;;;24.98;10.80;;;18.60;99.90;;;;;;4914111;29;20031;-75
2022/10/24 09:24:54;;;;;;;29.58;10.95;;;18.70;99.90;;;;;;4914018;29;20028;-76
2022/10/24 09:27:28;;;;;;;23.38;9.65;;;18.90;99.90;;;;;;4896793;29;20032;-76
2022/10/24 09:29:55;;;;;;;19.10;10.45;;;18.90;99.90;;;;;;4896780;29;20063;-76
2022/10/24 09:32:29;;;;;;;15.45;10.82;;;19.10;99.90;;;;;;4915633;29;20024;-75
2022/10/24 09:34:59;;;;;;;19.20;10.15;;;19.10;99.90;;;;;;4899425;29;20048;-75
2022/10/24 09:37:50;;;;;;;17.65;9.48;;;19.20;99.90;;;;;;4899084;29;20051;-75
2022/10/24 09:40:52;;;;;;;14.68;9.38;;;19.30;99.90;;;;;;4902948;29;20048;-75
2022/10/24 09:43:30;;;;;;;14.15;9.75;;;19.40;99.90;;;;;;4889760;29;20040;-75
2022/10/24 09:46:15;;;;;;;22.05;9.43;;;19.40;99.90;;;;;;4914748;29;20028;-75
2022/10/24 09:48:47;;;;;;;18.83;10.07;;;19.50;99.90;;;;;;4917503;29;20054;-75
2022/10/24 09:51:44;;;;;;;16.10;9.15;;;19.60;99.90;;;;;;4920328;29;20107;-75
2022/10/24 09:54:19;;;;;;;16.88;8.70;;;19.60;99.90;;;;;;4902236;29;20498;-75
2022/10/24 09:57:03;;;;;;;17.85;10.15;;;19.60;99.90;;;;;;4903042;29;20036;-75
2022/10/24 09:59:43;;;;;;;21.92;9.48;;;19.70;99.90;;;;;;4919535;29;20116;-75
2022/10/24 10:02:33;;;;;;;20.77;10.10;;;19.70;99.90;;;;;;4918874;29;20115;-75
2022/10/24 10:05:15;;;;;;;24.50;11.18;;;19.80;99.90;;;;;;4919777;29;20048;-75
2022/10/24 10:07:47;;;;;;;20.95;10.75;;;19.90;99.90;;;;;;4919412;29;20024;-75
2022/10/24 10:10:31;;;;;;;27.33;11.57;;;19.90;99.90;;;;;;4919130;29;20024;-75
2022/10/24 10:13:04;;;;;;;23.23;12.20;;;19.90;99.90;;;;;;4919147;29;20034;-75
2022/10/24 10:15:37;;;;;;;31.35;13.85;;;19.90;99.90;;;;;;4902149;29;20036;-75
2022/10/24 10:18:38;;;;;;;31.65;13.55;;;19.90;99.90;;;;;;4919072;29;20024;-75
2022/10/24 10:21:10;;;;;;;24.40;12.13;;;20.00;99.90;;;;;;4872527;29;20123;-75
2022/10/24 10:23:40;;;;;;;31.98;12.45;;;20.00;99.90;;;;;;4902720;29;20040;-75
2022/10/24 10:26:15;;;;;;;23.27;11.05;;;20.00;99.90;;;;;;4902560;29;20032;-75
2022/10/24 10:28:45;;;;;;;17.58;10.55;;;20.00;99.90;;;;;;4902522;29;20103;-75
2022/10/24 10:31:11;;;;;;;28.88;13.20;;;20.10;99.90;;;;;;4919419;29;20103;-75
2022/10/24 10:34:00;;;;;;;25.02;13.05;;;20.20;99.90;;;;;;4919467;29;20024;-75
2022/10/24 10:36:42;;;;;;;28.10;11.70;;;20.30;99.90;;;;;;4919539;29;20025;-75
2022/10/24 10:39:26;;;;;;;28.30;12.80;;;20.30;99.90;;;;;;4919265;29;20028;-75
2022/10/24 10:41:54;;;;;;;27.17;12.68;;;20.40;99.90;;;;;;4919094;29;20040;-75
2022/10/24 10:44:59;;;;;;;29.17;13.65;;;20.40;99.90;;;;;;4919199;29;20035;-75
2022/10/24 10:48:02;;;;;;;25.70;14.95;;;20.50;99.90;;;;;;4919228;29;20634;-75
2022/10/24 10:50:39;;;;;;;27.60;14.93;;;20.50;99.90;;;;;;4919258;29;20066;-75
2022/10/24 10:53:23;;;;;;;21.10;14.00;;;20.50;99.90;;;;;;4919323;29;20052;-75
2022/10/24 10:56:27;;;;;;;29.40;15.20;;;20.60;99.90;;;;;;4919062;29;20120;-75
2022/10/24 10:59:12;;;;;;;32.35;16.38;;;20.60;99.90;;;;;;4874848;29;20119;-74
2022/10/24 11:02:02;;;;;;;25.55;15.70;;;20.70;99.90;;;;;;4917898;29;20505;-75
2022/10/24 11:04:50;;;;;;;25.42;15.48;;;20.60;99.90;;;;;;4918745;29;20510;-75
2022/10/24 11:07:16;;;;;;;30.40;15.88;;;20.70;99.90;;;;;;4901871;29;20036;-75
2022/10/24 11:09:48;;;;;;;26.48;15.57;;;20.70;99.90;;;;;;4918886;29;20534;-75
2022/10/24 11:12:24;;;;;;;25.80;14.55;;;20.80;99.90;;;;;;4901931;29;20032;-75
2022/10/24 11:15:15;;;;;;;27.75;15.98;;;20.80;99.90;;;;;;4918881;29;20024;-75
2022/10/24 11:17:54;;;;;;;27.77;16.20;;;20.80;99.90;;;;;;4918661;29;20028;-75
2022/10/24 11:20:37;;;;;;;30.75;14.85;;;20.80;99.90;;;;;;4918733;29;20467;-75
2022/10/24 11:23:32;;;;;;;32.28;16.13;;;20.80;99.90;;;;;;4901579;29;20055;-75
2022/10/24 11:26:04;;;;;;;23.73;14.93;;;20.80;99.90;;;;;;4874251;29;20509;-75
2022/10/24 11:29:02;;;;;;;26.00;13.38;;;20.90;99.90;;;;;;4901554;29;20083;-75
2022/10/24 11:31:35;;;;;;;24.23;14.23;;;20.90;99.90;;;;;;4901523;29;20060;-75
2022/10/24 11:34:38;;;;;;;24.23;15.30;;;21.00;99.90;;;;;;4918216;29;20032;-75
2022/10/24 11:37:32;;;;;;;28.70;14.20;;;21.00;99.90;;;;;;4897639;29;20467;-75
2022/10/24 11:40:18;;;;;;;23.27;14.73;;;21.00;99.90;;;;;;4906685;29;20036;-75
2022/10/24 11:43:04;;;;;;;22.58;14.63;;;21.00;99.90;;;;;;4900981;29;20080;-75
2022/10/24 11:45:46;;;;;;;24.52;12.90;;;21.00;99.90;;;;;;4899750;29;20043;-76
2022/10/24 11:48:37;;;;;;;25.40;13.57;;;21.00;99.90;;;;;;4918244;29;20020;-75
2022/10/24 11:51:18;;;;;;;30.80;13.05;;;21.00;99.90;;;;;;4918241;29;20024;-75
2022/10/24 11:54:16;;;;;;;22.63;12.67;;;21.10;99.90;;;;;;4918217;29;20024;-75
2022/10/24 11:56:52;;;;;;;16.25;11.63;;;21.20;99.90;;;;;;4881531;29;20127;-75
2022/10/24 11:59:29;;;;;;;16.45;11.38;;;21.40;99.90;;;;;;4918172;29;20112;-75
2022/10/24 12:01:57;;;;;;;25.80;11.70;;;21.50;99.90;;;;;;4900745;29;20024;-75
2022/10/24 12:04:26;;;;;;;21.50;11.18;;;21.60;99.90;;;;;;4917584;29;20064;-75
2022/10/24 12:07:13;;;;;;;23.73;12.25;;;21.60;99.90;;;;;;4917805;29;20040;-75
2022/10/24 12:09:42;;;;;;;22.35;11.32;;;21.60;99.90;;;;;;4900632;29;20039;-75
2022/10/24 12:12:16;;;;;;;19.63;10.80;;;21.70;99.90;;;;;;4900497;29;20016;-75
2022/10/24 12:15:10;;;;;;;27.48;11.65;;;21.70;99.90;;;;;;4900294;29;20036;-75
2022/10/24 12:17:51;;;;;;;21.02;10.77;;;21.60;99.90;;;;;;4900533;29;20020;-75
2022/10/24 12:20:20;;;;;;;19.00;10.57;;;21.70;99.90;;;;;;4917682;29;20024;-75
2022/10/24 12:22:47;;;;;;;22.95;11.30;;;21.70;99.90;;;;;;4917504;29;20028;-75
2022/10/24 12:25:19;;;;;;;24.90;10.95;;;21.70;99.90;;;;;;4917253;29;20071;-75
2022/10/24 12:28:02;;;;;;;19.58;11.07;;;21.70;99.90;;;;;;4917362;29;20060;-75
2022/10/24 12:30:32;;;;;;;21.23;11.15;;;21.80;99.90;;;;;;4917593;29;20095;-75
2022/10/24 12:33:26;;;;;;;19.88;10.70;;;21.80;99.90;;;;;;4917322;29;20028;-75
2022/10/24 12:35:57;;;;;;;12.65;9.88;;;21.80;99.90;;;;;;4917062;29;20020;-75
2022/10/24 12:38:26;;;;;;;;;;;21.90;99.90;;;;;;4900859;29;20127;-76
2022/10/24 12:41:08;;;;;;;21.65;11.13;;;21.90;99.90;;;;;;4917283;29;19907;-75
2022/10/24 12:43:46;;;;;;;20.27;9.68;;;21.90;99.90;;;;;;4917255;29;20048;-75
2022/10/24 12:46:15;;;;;;;14.00;10.63;;;21.80;99.90;;;;;;4916878;29;20024;-75
2022/10/24 12:48:41;;;;;;;19.33;9.98;;;21.90;99.90;;;;;;4900026;29;20039;-75
2022/10/24 12:51:32;;;;;;;16.98;10.38;;;21.90;99.90;;;;;;4917056;29;20024;-75
2022/10/24 12:54:09;;;;;;;18.27;9.43;;;22.00;99.90;;;;;;4917110;29;20486;-76
2022/10/24 12:56:34;;;;;;;21.05;9.00;;;22.00;99.90;;;;;;4917097;29;20028;-75